Ride Results

Emu Cup (04-07-2015)
Ride distance: 80.0 km

Outcomes - Emu Cup (04-07-2015)
Division No. of Entries Retired / DNE Completed Withdrawn Ineligible V/O Percentage Completed
HW 4 - 2 - - 2 50.00%
MW 9 - 9 - - - 100.00%
LW 12 - 11 - - 1 91.67%
JN 5 - 5 - - - 100.00%
Totals 30 - 27 - - 3 90.00%
Results - Emu Cup (04-07-2015)
No. Rider Horse Place Time Leg Speeds Total
Km/Hr
H/R bpm
Heavyweight
167 Bill Verspaandonk Eaglehawk Shiraz 1 (BC) 6:39:00 12.6, 11.4, 12.7 12.03 34, 39, 46, 46 (Avg:43)
191 Jake Verspaandonk Belectra BBP Chantelle 1 6:39:00 12.6, 11.4, 12.7 12.03 30, 31, 48, 52 (Avg:43)
233 Frank Cullen Chappy Heart Rate L3 0:00:00 14.2, 11.1, 12.9 - 32, 46, 47, 63 (Avg:52)
197 Dennis Moore Boss Lame L2 0:00:00 16.2, 12.4 - 44, 42, 47 (Avg:44)
Middleweight
23 Brittnee D'Hondt Timbertop Golden Fantasy 1 (BC) 5:19:00 16.2, 13.5, 17.6 15.05 28, 45, 47, 46 (Avg:46)
168 Trish VanDonk Swiftwood Bluey 2 6:39:00 12.6, 11.4, 12.7 12.03 40, 40, 43, 42 (Avg:41)
789 Kate Gibson AM Reigning Bianca 3 6:54:00 11.9, 11.0, 12.4 11.59 32, 44, 48, 50 (Avg:47)
152 Naomi O'Shaughnessy Castlebar Party Girl 3 6:54:00 11.9, 11.2, 11.8 11.59 36, 43, 42, 48 (Avg:44)
788 Kimberley Temmerman Oso Dresdene Doll 3 6:54:00 11.9, 11.0, 12.4 11.59 44, 46, 46, 46 (Avg:46)
160 Jo-Anne Francis Sierra Lodge Camelot 6 7:02:00 12.3, 10.6, 12.1 11.37 30, 41, 45, 45 (Avg:43)
790 Frith Szigethy-Gyula Littlebanks Magic Wings 6 7:02:00 12.3, 10.6, 12.1 11.37 30, 40, 55, 53 (Avg:49)
8 Jane McLaughlin Elphyn Shafyre 8 7:12:00 12.3, 10.2, 11.9 11.11 30, 36, 43, 44 (Avg:41)
273 Georgie Hart Musical Gully Bosanova 9 7:42:00 11.0, 9.7, 11.2 10.39 40, 47, 45, 48 (Avg:46)
Lightweight
785 Jenny Berg Oso Edith 1 (BC) 5:14:00 15.9, 14.3, 16.6 15.29 35, 41, 48, 48 (Avg:45)
183 Nicky Robinson Sterling Soldier 2 5:19:00 16.2, 13.5, 17.6 15.05 32, 42, 45, 51 (Avg:46)
91 Kim Noble Warrawee Naaziq 3 5:21:00 16.4, 13.9, 15.7 14.95 40, 48, 46, 53 (Avg:49)
219 Caroline Noble Top Fancy Trianna 4 6:27:00 12.4, 12.3, 12.4 12.40 32, 41, 51, 52 (Avg:48)
791 Jayne Rathbone Ken U Spot the Difference 4 6:27:00 12.4, 12.3, 12.4 12.40 38, 37, 44, 46 (Avg:42)
192 Tabitha Shmetzer Temar Shamarra 6 6:39:00 12.6, 11.4, 12.7 12.03 25, 37, 50, 44 (Avg:43)
794 Sorsha Stuart-Rokvic Al-Marah Ellice 7 6:54:00 11.9, 11.0, 12.4 11.59 38, 45, 48, 45 (Avg:46)
22 Sarah McLaughlin Tonki Dee Boo Betty 8 7:12:00 12.3, 10.2, 11.9 11.11 40, 41, 44, 44 (Avg:43)
782 Felix Morio Jan's Au Lait 9 7:14:00 11.6, 10.6, 11.4 11.06 38, 44, 48, 50 (Avg:47)
278 Gina Thompson Dualling 10 7:42:00 11.0, 9.7, 11.2 10.39 39, 47, 44, 46 (Avg:45)
793 Cathy Chisari Jeshar Park Shahmeenah 11 8:44:00 11.6, 8.8, 7.9 9.16 28, 44, 40, 47 (Avg:43)
795 Kerry Bail Eddann Omorose Metabolics moderate L3 0:00:00 11.0, 10.9, 11.4 - 22, 36, 38, 40 (Avg:38)
Junior
781 Stacey Clarke Oso Ellazandra 1 (BC) 5:14:00 15.9, 14.3, 16.6 15.29 34, 42, 51, 50 (Avg:47)
292 Alison Noble Roswick Dilhurst 2 5:21:00 16.4, 13.9, 15.7 14.95 31, 44, 45, 48 (Avg:45)
225 Harrison Berg Aloha Mamma Mia 3 6:54:00 11.9, 11.0, 12.4 11.59 36, 43, 50, 46 (Avg:46)
776 Chloe Hubczack AragonnMG 4 7:50:00 11.7, 8.8, 12.3 10.21 30, 46, 44, 30 (Avg:40)
262 Bonnie Player Canala Aramis 4 7:50:00 11.7, 8.8, 12.3 10.21 28, 48, 44, 45 (Avg:45)